sensor_id;sensor_type;location;lat;lon;timestamp;pressure;altitude;pressure_sealevel;temperature;humidity
75640;BME280;64233;51.486;6.332;2022-12-18T00:01:33;102511.81;;;-6.78;100.00
75640;BME280;64233;51.486;6.332;2022-12-18T00:04:00;102518.81;;;-6.79;100.00
75640;BME280;64233;51.486;6.332;2022-12-18T00:06:28;102500.19;;;-6.87;100.00
75640;BME280;64233;51.486;6.332;2022-12-18T00:08:55;102489.53;;;-6.84;100.00
75640;BME280;64233;51.486;6.332;2022-12-18T00:11:24;102485.72;;;-6.78;100.00
75640;BME280;64233;51.486;6.332;2022-12-18T00:13:50;102492.22;;;-6.71;100.00
75640;BME280;64233;51.486;6.332;2022-12-18T00:16:18;102487.09;;;-6.72;100.00
75640;BME280;64233;51.486;6.332;2022-12-18T00:18:48;102491.69;;;-6.76;100.00
75640;BME280;64233;51.486;6.332;2022-12-18T00:21:14;102491.03;;;-6.80;100.00
75640;BME280;64233;51.486;6.332;2022-12-18T00:23:42;102495.84;;;-6.73;100.00
75640;BME280;64233;51.486;6.332;2022-12-18T00:26:11;102494.19;;;-6.60;100.00
75640;BME280;64233;51.486;6.332;2022-12-18T00:28:37;102493.31;;;-6.61;100.00
75640;BME280;64233;51.486;6.332;2022-12-18T00:31:05;102482.00;;;-6.47;100.00
75640;BME280;64233;51.486;6.332;2022-12-18T00:33:31;102494.78;;;-6.42;100.00
75640;BME280;64233;51.486;6.332;2022-12-18T00:36:09;102516.69;;;-6.30;99.48
75640;BME280;64233;51.486;6.332;2022-12-18T00:38:35;102515.31;;;-6.36;99.61
75640;BME280;64233;51.486;6.332;2022-12-18T00:41:01;102506.19;;;-6.43;99.65
75640;BME280;64233;51.486;6.332;2022-12-18T00:43:26;102501.00;;;-6.58;99.29
75640;BME280;64233;51.486;6.332;2022-12-18T00:45:52;102503.97;;;-6.64;99.72
75640;BME280;64233;51.486;6.332;2022-12-18T00:48:17;102503.97;;;-6.64;99.77
75640;BME280;64233;51.486;6.332;2022-12-18T00:50:43;102501.56;;;-6.67;99.94
75640;BME280;64233;51.486;6.332;2022-12-18T00:53:08;102505.78;;;-6.79;100.00
75640;BME280;64233;51.486;6.332;2022-12-18T00:55:33;102503.69;;;-6.73;100.00
75640;BME280;64233;51.486;6.332;2022-12-18T00:57:59;102503.53;;;-6.70;100.00
75640;BME280;64233;51.486;6.332;2022-12-18T01:00:24;102493.53;;;-6.78;100.00
75640;BME280;64233;51.486;6.332;2022-12-18T01:02:50;102490.94;;;-6.78;100.00
75640;BME280;64233;51.486;6.332;2022-12-18T01:05:15;102492.03;;;-6.82;100.00
75640;BME280;64233;51.486;6.332;2022-12-18T01:07:41;102500.56;;;-6.93;100.00
75640;BME280;64233;51.486;6.332;2022-12-18T01:10:07;102496.34;;;-6.96;100.00
75640;BME280;64233;51.486;6.332;2022-12-18T01:12:33;102500.38;;;-6.90;100.00
75640;BME280;64233;51.486;6.332;2022-12-18T01:14:58;102497.94;;;-6.93;100.00
75640;BME280;64233;51.486;6.332;2022-12-18T01:17:24;102502.31;;;-6.94;100.00
75640;BME280;64233;51.486;6.332;2022-12-18T01:19:49;102498.59;;;-6.89;100.00
75640;BME280;64233;51.486;6.332;2022-12-18T01:22:14;102505.50;;;-6.88;100.00
75640;BME280;64233;51.486;6.332;2022-12-18T01:24:40;102501.00;;;-6.86;100.00
75640;BME280;64233;51.486;6.332;2022-12-18T01:27:05;102500.56;;;-6.79;100.00
75640;BME280;64233;51.486;6.332;2022-12-18T01:29:30;102501.19;;;-6.75;100.00
75640;BME280;64233;51.486;6.332;2022-12-18T01:31:56;102498.13;;;-6.82;100.00
75640;BME280;64233;51.486;6.332;2022-12-18T01:34:22;102493.94;;;-6.84;100.00
75640;BME280;64233;51.486;6.332;2022-12-18T01:36:48;102491.56;;;-6.89;100.00
75640;BME280;64233;51.486;6.332;2022-12-18T01:39:20;102499.34;;;-6.87;100.00
75640;BME280;64233;51.486;6.332;2022-12-18T01:41:52;102499.41;;;-6.89;100.00
75640;BME280;64233;51.486;6.332;2022-12-18T01:44:54;102502.13;;;-6.90;100.00
75640;BME280;64233;51.486;6.332;2022-12-18T01:52:58;102504.81;;;-7.06;100.00
75640;BME280;64233;51.486;6.332;2022-12-18T01:55:27;102510.03;;;-7.21;100.00
75640;BME280;64233;51.486;6.332;2022-12-18T01:57:55;102505.34;;;-7.45;100.00
75640;BME280;64233;51.486;6.332;2022-12-18T02:00:22;102503.53;;;-7.58;100.00
75640;BME280;64233;51.486;6.332;2022-12-18T02:02:48;102494.44;;;-7.82;100.00
75640;BME280;64233;51.486;6.332;2022-12-18T02:05:19;102496.31;;;-8.00;100.00
75640;BME280;64233;51.486;6.332;2022-12-18T02:08:22;102498.50;;;-7.92;100.00
75640;BME280;64233;51.486;6.332;2022-12-18T02:11:07;102494.88;;;-7.59;100.00
75640;BME280;64233;51.486;6.332;2022-12-18T02:14:05;102489.78;;;-7.46;100.00
75640;BME280;64233;51.486;6.332;2022-12-18T02:16:41;102497.50;;;-7.45;100.00
75640;BME280;64233;51.486;6.332;2022-12-18T02:19:30;102483.06;;;-7.50;100.00
75640;BME280;64233;51.486;6.332;2022-12-18T02:24:51;102481.66;;;-7.41;100.00
75640;BME280;64233;51.486;6.332;2022-12-18T02:27:20;102489.28;;;-7.53;100.00
75640;BME280;64233;51.486;6.332;2022-12-18T02:29:50;102482.50;;;-7.55;100.00
75640;BME280;64233;51.486;6.332;2022-12-18T02:32:26;102484.84;;;-7.51;100.00
75640;BME280;64233;51.486;6.332;2022-12-18T02:34:54;102486.44;;;-7.48;100.00
75640;BME280;64233;51.486;6.332;2022-12-18T02:37:22;102488.09;;;-7.47;100.00
75640;BME280;64233;51.486;6.332;2022-12-18T02:39:49;102483.34;;;-7.40;100.00
75640;BME280;64233;51.486;6.332;2022-12-18T02:42:16;102485.59;;;-7.34;100.00
75640;BME280;64233;51.486;6.332;2022-12-18T02:44:51;102494.75;;;-7.27;100.00
75640;BME280;64233;51.486;6.332;2022-12-18T02:47:20;102480.66;;;-7.24;100.00
75640;BME280;64233;51.486;6.332;2022-12-18T02:52:38;102472.28;;;-7.15;100.00
75640;BME280;64233;51.486;6.332;2022-12-18T02:55:16;102477.41;;;-7.14;100.00
75640;BME280;64233;51.486;6.332;2022-12-18T03:00:18;102481.34;;;-7.21;100.00
75640;BME280;64233;51.486;6.332;2022-12-18T03:03:02;102478.34;;;-7.29;100.00
75640;BME280;64233;51.486;6.332;2022-12-18T03:05:35;102480.13;;;-7.30;100.00
75640;BME280;64233;51.486;6.332;2022-12-18T03:08:17;102473.41;;;-7.19;100.00
75640;BME280;64233;51.486;6.332;2022-12-18T03:11:01;102461.75;;;-7.14;100.00
75640;BME280;64233;51.486;6.332;2022-12-18T03:13:40;102461.28;;;-7.06;100.00
75640;BME280;64233;51.486;6.332;2022-12-18T03:16:11;102454.59;;;-6.96;100.00
75640;BME280;64233;51.486;6.332;2022-12-18T03:18:50;102451.28;;;-6.85;100.00
75640;BME280;64233;51.486;6.332;2022-12-18T03:21:19;102458.09;;;-6.82;100.00
75640;BME280;64233;51.486;6.332;2022-12-18T03:23:49;102464.91;;;-6.80;99.83
75640;BME280;64233;51.486;6.332;2022-12-18T03:26:19;102466.19;;;-6.72;99.72
75640;BME280;64233;51.486;6.332;2022-12-18T03:28:50;102463.69;;;-6.74;99.54
75640;BME280;64233;51.486;6.332;2022-12-18T03:31:17;102460.16;;;-6.73;99.91
75640;BME280;64233;51.486;6.332;2022-12-18T03:33:47;102463.13;;;-6.79;99.54
75640;BME280;64233;51.486;6.332;2022-12-18T03:36:16;102453.16;;;-6.87;100.00
75640;BME280;64233;51.486;6.332;2022-12-18T03:38:41;102456.25;;;-6.80;100.00
75640;BME280;64233;51.486;6.332;2022-12-18T03:41:29;102460.59;;;-6.81;99.82
75640;BME280;64233;51.486;6.332;2022-12-18T03:44:23;102467.16;;;-6.88;100.00
75640;BME280;64233;51.486;6.332;2022-12-18T03:46:55;102464.72;;;-6.91;100.00
75640;BME280;64233;51.486;6.332;2022-12-18T03:49:26;102460.53;;;-6.94;100.00
75640;BME280;64233;51.486;6.332;2022-12-18T03:52:18;102461.00;;;-6.87;100.00
75640;BME280;64233;51.486;6.332;2022-12-18T03:54:46;102455.47;;;-6.82;100.00
75640;BME280;64233;51.486;6.332;2022-12-18T03:57:23;102457.81;;;-6.78;100.00
75640;BME280;64233;51.486;6.332;2022-12-18T03:59:55;102452.31;;;-6.73;99.73
75640;BME280;64233;51.486;6.332;2022-12-18T04:02:22;102450.63;;;-6.74;100.00
75640;BME280;64233;51.486;6.332;2022-12-18T04:04:51;102448.75;;;-6.72;99.79
75640;BME280;64233;51.486;6.332;2022-12-18T04:07:18;102446.06;;;-6.70;99.84
75640;BME280;64233;51.486;6.332;2022-12-18T04:09:45;102438.41;;;-6.73;99.80
75640;BME280;64233;51.486;6.332;2022-12-18T04:12:10;102446.72;;;-6.81;100.00
75640;BME280;64233;51.486;6.332;2022-12-18T04:14:36;102438.31;;;-6.86;100.00
75640;BME280;64233;51.486;6.332;2022-12-18T04:17:02;102441.03;;;-6.88;100.00
75640;BME280;64233;51.486;6.332;2022-12-18T04:19:27;102435.44;;;-6.82;100.00
75640;BME280;64233;51.486;6.332;2022-12-18T04:21:53;102435.41;;;-6.67;99.69
75640;BME280;64233;51.486;6.332;2022-12-18T04:24:18;102434.28;;;-6.63;99.64
75640;BME280;64233;51.486;6.332;2022-12-18T04:26:44;102432.41;;;-6.61;99.30
75640;BME280;64233;51.486;6.332;2022-12-18T04:29:09;102436.25;;;-6.67;99.32
75640;BME280;64233;51.486;6.332;2022-12-18T04:31:34;102430.81;;;-6.64;99.68
75640;BME280;64233;51.486;6.332;2022-12-18T04:33:59;102428.97;;;-6.62;99.14
75640;BME280;64233;51.486;6.332;2022-12-18T04:36:25;102428.56;;;-6.55;98.90
75640;BME280;64233;51.486;6.332;2022-12-18T04:38:50;102426.47;;;-6.63;99.11
75640;BME280;64233;51.486;6.332;2022-12-18T04:41:15;102424.78;;;-6.64;99.37
75640;BME280;64233;51.486;6.332;2022-12-18T04:43:41;102418.63;;;-6.63;99.16
75640;BME280;64233;51.486;6.332;2022-12-18T04:46:07;102414.22;;;-6.63;99.12
75640;BME280;64233;51.486;6.332;2022-12-18T04:48:33;102414.78;;;-6.58;98.98
75640;BME280;64233;51.486;6.332;2022-12-18T04:50:59;102409.25;;;-6.53;98.59
75640;BME280;64233;51.486;6.332;2022-12-18T04:53:24;102405.72;;;-6.52;98.96
75640;BME280;64233;51.486;6.332;2022-12-18T04:55:49;102411.34;;;-6.45;98.44
75640;BME280;64233;51.486;6.332;2022-12-18T04:58:15;102408.63;;;-6.44;98.22
75640;BME280;64233;51.486;6.332;2022-12-18T05:00:40;102404.06;;;-6.40;98.40
75640;BME280;64233;51.486;6.332;2022-12-18T05:03:06;102412.34;;;-6.33;98.08
75640;BME280;64233;51.486;6.332;2022-12-18T05:05:31;102416.66;;;-6.19;97.71
75640;BME280;64233;51.486;6.332;2022-12-18T05:07:56;102416.38;;;-6.15;97.45
75640;BME280;64233;51.486;6.332;2022-12-18T05:10:22;102415.41;;;-6.14;97.26
75640;BME280;64233;51.486;6.332;2022-12-18T05:12:47;102419.81;;;-6.14;97.38
75640;BME280;64233;51.486;6.332;2022-12-18T05:15:30;102425.06;;;-6.14;96.99
75640;BME280;64233;51.486;6.332;2022-12-18T05:17:56;102413.66;;;-6.13;97.23
75640;BME280;64233;51.486;6.332;2022-12-18T05:20:22;102420.84;;;-6.17;97.37
75640;BME280;64233;51.486;6.332;2022-12-18T05:22:47;102425.06;;;-6.14;97.55
75640;BME280;64233;51.486;6.332;2022-12-18T05:25:13;102426.63;;;-6.12;97.19
75640;BME280;64233;51.486;6.332;2022-12-18T05:27:38;102422.53;;;-6.16;97.05
75640;BME280;64233;51.486;6.332;2022-12-18T05:30:04;102433.72;;;-6.14;97.41
75640;BME280;64233;51.486;6.332;2022-12-18T05:32:29;102445.03;;;-6.13;97.27
75640;BME280;64233;51.486;6.332;2022-12-18T05:34:54;102447.09;;;-6.18;97.16
75640;BME280;64233;51.486;6.332;2022-12-18T05:37:22;102451.59;;;-6.20;97.29
75640;BME280;64233;51.486;6.332;2022-12-18T05:39:47;102461.31;;;-6.23;97.31
75640;BME280;64233;51.486;6.332;2022-12-18T05:42:13;102462.41;;;-6.12;97.68
75640;BME280;64233;51.486;6.332;2022-12-18T05:44:38;102466.97;;;-6.16;97.65
75640;BME280;64233;51.486;6.332;2022-12-18T05:47:03;102468.94;;;-6.19;98.12
75640;BME280;64233;51.486;6.332;2022-12-18T05:49:29;102464.38;;;-6.16;98.14
75640;BME280;64233;51.486;6.332;2022-12-18T05:51:54;102469.81;;;-6.19;97.73
75640;BME280;64233;51.486;6.332;2022-12-18T05:54:19;102468.31;;;-6.23;97.86
75640;BME280;64233;51.486;6.332;2022-12-18T05:56:45;102469.44;;;-6.27;97.98
75640;BME280;64233;51.486;6.332;2022-12-18T05:59:10;102465.47;;;-6.33;98.34
75640;BME280;64233;51.486;6.332;2022-12-18T06:01:35;102472.38;;;-6.32;98.40
75640;BME280;64233;51.486;6.332;2022-12-18T06:04:01;102470.47;;;-6.30;98.51
75640;BME280;64233;51.486;6.332;2022-12-18T06:06:27;102472.06;;;-6.27;98.25
75640;BME280;64233;51.486;6.332;2022-12-18T06:08:53;102468.22;;;-6.21;98.28
75640;BME280;64233;51.486;6.332;2022-12-18T06:11:21;102459.78;;;-6.12;98.03
75640;BME280;64233;51.486;6.332;2022-12-18T06:13:50;102469.94;;;-6.08;97.89
75640;BME280;64233;51.486;6.332;2022-12-18T06:16:15;102457.81;;;-6.09;97.88
75640;BME280;64233;51.486;6.332;2022-12-18T06:18:41;102443.03;;;-6.10;97.91
75640;BME280;64233;51.486;6.332;2022-12-18T06:21:06;102445.66;;;-6.10;97.59
75640;BME280;64233;51.486;6.332;2022-12-18T06:23:32;102441.09;;;-6.06;97.47
75640;BME280;64233;51.486;6.332;2022-12-18T06:25:57;102430.81;;;-6.09;97.71
75640;BME280;64233;51.486;6.332;2022-12-18T06:28:22;102432.06;;;-6.15;97.79
75640;BME280;64233;51.486;6.332;2022-12-18T06:30:48;102432.09;;;-6.02;97.94
75640;BME280;64233;51.486;6.332;2022-12-18T06:33:14;102429.59;;;-5.91;97.53
75640;BME280;64233;51.486;6.332;2022-12-18T06:35:40;102428.66;;;-5.90;97.70
75640;BME280;64233;51.486;6.332;2022-12-18T06:38:12;102428.66;;;-5.90;97.76
75640;BME280;64233;51.486;6.332;2022-12-18T06:40:44;102422.03;;;-5.95;97.86
75640;BME280;64233;51.486;6.332;2022-12-18T06:43:09;102424.56;;;-5.94;97.98
75640;BME280;64233;51.486;6.332;2022-12-18T06:45:35;102418.19;;;-5.90;97.63
75640;BME280;64233;51.486;6.332;2022-12-18T06:48:00;102419.13;;;-5.91;97.59
75640;BME280;64233;51.486;6.332;2022-12-18T06:50:26;102422.66;;;-5.92;97.57
75640;BME280;64233;51.486;6.332;2022-12-18T06:52:51;102418.25;;;-5.91;97.26
75640;BME280;64233;51.486;6.332;2022-12-18T06:55:16;102419.31;;;-5.94;97.33
75640;BME280;64233;51.486;6.332;2022-12-18T06:57:42;102412.00;;;-5.89;97.07
75640;BME280;64233;51.486;6.332;2022-12-18T07:00:07;102408.34;;;-5.86;96.99
75640;BME280;64233;51.486;6.332;2022-12-18T07:02:33;102412.31;;;-5.80;96.80
75640;BME280;64233;51.486;6.332;2022-12-18T07:04:58;102410.25;;;-5.75;96.62
75640;BME280;64233;51.486;6.332;2022-12-18T07:07:23;102404.69;;;-5.71;96.44
75640;BME280;64233;51.486;6.332;2022-12-18T07:09:50;102405.41;;;-5.68;96.79
75640;BME280;64233;51.486;6.332;2022-12-18T07:12:15;102414.44;;;-5.60;96.17
75640;BME280;64233;51.486;6.332;2022-12-18T07:14:41;102413.19;;;-5.54;96.21
75640;BME280;64233;51.486;6.332;2022-12-18T07:17:06;102409.50;;;-5.51;95.94
75640;BME280;64233;51.486;6.332;2022-12-18T07:19:31;102398.31;;;-5.54;96.18
75640;BME280;64233;51.486;6.332;2022-12-18T07:21:56;102401.03;;;-5.42;95.97
75640;BME280;64233;51.486;6.332;2022-12-18T07:24:22;102400.09;;;-5.41;95.96
75640;BME280;64233;51.486;6.332;2022-12-18T07:26:47;102390.16;;;-5.49;96.28
75640;BME280;64233;51.486;6.332;2022-12-18T07:29:12;102394.44;;;-5.48;96.16
75640;BME280;64233;51.486;6.332;2022-12-18T07:31:38;102392.53;;;-5.46;96.34
75640;BME280;64233;51.486;6.332;2022-12-18T07:34:03;102387.63;;;-5.38;96.10
75640;BME280;64233;51.486;6.332;2022-12-18T07:36:28;102381.78;;;-5.41;95.81
75640;BME280;64233;51.486;6.332;2022-12-18T07:38:54;102380.22;;;-5.44;96.29
75640;BME280;64233;51.486;6.332;2022-12-18T07:41:19;102384.91;;;-5.36;95.85
75640;BME280;64233;51.486;6.332;2022-12-18T07:43:45;102391.69;;;-5.33;95.69
75640;BME280;64233;51.486;6.332;2022-12-18T07:46:11;102385.72;;;-5.23;95.29
75640;BME280;64233;51.486;6.332;2022-12-18T07:48:44;102384.75;;;-5.22;94.93
75640;BME280;64233;51.486;6.332;2022-12-18T07:51:09;102373.06;;;-5.29;95.36
75640;BME280;64233;51.486;6.332;2022-12-18T07:53:35;102369.16;;;-5.23;95.06
75640;BME280;64233;51.486;6.332;2022-12-18T07:56:04;102370.22;;;-5.13;94.70
75640;BME280;64233;51.486;6.332;2022-12-18T07:58:30;102368.22;;;-5.22;95.15
75640;BME280;64233;51.486;6.332;2022-12-18T08:01:10;102367.50;;;-5.24;95.29
75640;BME280;64233;51.486;6.332;2022-12-18T08:03:38;102369.78;;;-5.07;94.56
75640;BME280;64233;51.486;6.332;2022-12-18T08:06:06;102358.97;;;-5.02;94.44
75640;BME280;64233;51.486;6.332;2022-12-18T08:08:33;102352.91;;;-5.03;94.72
75640;BME280;64233;51.486;6.332;2022-12-18T08:10:58;102341.97;;;-4.96;94.46
75640;BME280;64233;51.486;6.332;2022-12-18T08:13:24;102337.03;;;-4.88;93.30
75640;BME280;64233;51.486;6.332;2022-12-18T08:16:02;102339.41;;;-4.85;93.92
75640;BME280;64233;51.486;6.332;2022-12-18T08:18:28;102343.59;;;-4.82;93.75
75640;BME280;64233;51.486;6.332;2022-12-18T08:20:54;102343.38;;;-4.79;94.14
75640;BME280;64233;51.486;6.332;2022-12-18T08:23:20;102340.75;;;-4.79;94.01
75640;BME280;64233;51.486;6.332;2022-12-18T08:25:46;102335.28;;;-4.76;94.15
75640;BME280;64233;51.486;6.332;2022-12-18T08:28:11;102341.53;;;-4.66;93.13
75640;BME280;64233;51.486;6.332;2022-12-18T08:30:36;102349.06;;;-4.61;93.45
75640;BME280;64233;51.486;6.332;2022-12-18T08:33:02;102353.41;;;-4.49;93.02
75640;BME280;64233;51.486;6.332;2022-12-18T08:35:27;102351.09;;;-4.54;93.87
75640;BME280;64233;51.486;6.332;2022-12-18T08:37:53;102352.38;;;-4.46;93.21
75640;BME280;64233;51.486;6.332;2022-12-18T08:40:18;102350.72;;;-4.36;92.34
75640;BME280;64233;51.486;6.332;2022-12-18T08:42:43;102345.88;;;-4.29;92.12
75640;BME280;64233;51.486;6.332;2022-12-18T08:45:27;102346.56;;;-4.27;91.92
75640;BME280;64233;51.486;6.332;2022-12-18T08:47:53;102342.78;;;-4.23;91.88
75640;BME280;64233;51.486;6.332;2022-12-18T08:50:19;102344.34;;;-4.21;92.06
75640;BME280;64233;51.486;6.332;2022-12-18T08:52:45;102342.31;;;-4.17;91.69
75640;BME280;64233;51.486;6.332;2022-12-18T08:55:10;102340.41;;;-4.15;92.08
75640;BME280;64233;51.486;6.332;2022-12-18T08:57:35;102338.88;;;-4.06;91.19
75640;BME280;64233;51.486;6.332;2022-12-18T09:00:01;102330.53;;;-4.11;92.35
75640;BME280;64233;51.486;6.332;2022-12-18T09:02:28;102342.47;;;-4.07;91.22
75640;BME280;64233;51.486;6.332;2022-12-18T09:04:53;102351.06;;;-4.05;91.81
75640;BME280;64233;51.486;6.332;2022-12-18T09:07:18;102351.06;;;-4.05;91.11
75640;BME280;64233;51.486;6.332;2022-12-18T09:09:44;102349.88;;;-4.01;91.47
75640;BME280;64233;51.486;6.332;2022-12-18T09:12:09;102345.56;;;-4.02;91.60
75640;BME280;64233;51.486;6.332;2022-12-18T09:14:35;102352.16;;;-3.96;91.56
75640;BME280;64233;51.486;6.332;2022-12-18T09:17:01;102348.09;;;-3.89;91.10
75640;BME280;64233;51.486;6.332;2022-12-18T09:19:26;102339.63;;;-3.82;90.97
75640;BME280;64233;51.486;6.332;2022-12-18T09:21:51;102333.31;;;-3.79;91.46
75640;BME280;64233;51.486;6.332;2022-12-18T09:24:17;102322.34;;;-3.73;90.46
75640;BME280;64233;51.486;6.332;2022-12-18T09:26:42;102317.69;;;-3.69;90.17
75640;BME280;64233;51.486;6.332;2022-12-18T09:29:07;102322.13;;;-3.70;90.99
75640;BME280;64233;51.486;6.332;2022-12-18T09:31:33;102314.94;;;-3.68;91.21
75640;BME280;64233;51.486;6.332;2022-12-18T09:33:58;102317.09;;;-3.61;89.92
75640;BME280;64233;51.486;6.332;2022-12-18T09:36:24;102308.50;;;-3.52;89.90
75640;BME280;64233;51.486;6.332;2022-12-18T09:38:49;102310.88;;;-3.49;89.46
75640;BME280;64233;51.486;6.332;2022-12-18T09:44:03;102293.94;;;-3.45;89.59
75640;BME280;64233;51.486;6.332;2022-12-18T09:46:33;102294.56;;;-3.41;89.51
75640;BME280;64233;51.486;6.332;2022-12-18T09:49:01;102303.00;;;-3.38;89.24
75640;BME280;64233;51.486;6.332;2022-12-18T09:51:36;102305.38;;;-3.35;88.72
75640;BME280;64233;51.486;6.332;2022-12-18T09:54:10;102307.19;;;-3.35;88.94
75640;BME280;64233;51.486;6.332;2022-12-18T09:56:40;102304.06;;;-3.29;88.73
75640;BME280;64233;51.486;6.332;2022-12-18T09:59:25;102307.28;;;-3.25;88.78
75640;BME280;64233;51.486;6.332;2022-12-18T10:01:51;102301.09;;;-3.24;89.22
75640;BME280;64233;51.486;6.332;2022-12-18T10:04:17;102297.00;;;-3.17;88.66
75640;BME280;64233;51.486;6.332;2022-12-18T10:07:02;102296.03;;;-3.16;88.74
75640;BME280;64233;51.486;6.332;2022-12-18T10:12:55;102272.34;;;-3.05;88.12
75640;BME280;64233;51.486;6.332;2022-12-18T10:15:33;102293.84;;;-3.00;88.31
75640;BME280;64233;51.486;6.332;2022-12-18T10:21:00;102278.44;;;-2.93;88.49
75640;BME280;64233;51.486;6.332;2022-12-18T10:26:05;102273.53;;;-2.86;88.39
75640;BME280;64233;51.486;6.332;2022-12-18T10:28:33;102267.88;;;-2.82;87.87
75640;BME280;64233;51.486;6.332;2022-12-18T10:31:00;102279.69;;;-2.76;88.02
75640;BME280;64233;51.486;6.332;2022-12-18T10:33:30;102282.06;;;-2.73;88.21
75640;BME280;64233;51.486;6.332;2022-12-18T10:35:56;102273.09;;;-2.70;88.26
75640;BME280;64233;51.486;6.332;2022-12-18T10:38:28;102271.16;;;-2.68;87.72
75640;BME280;64233;51.486;6.332;2022-12-18T10:41:00;102253.47;;;-2.66;87.70
75640;BME280;64233;51.486;6.332;2022-12-18T10:46:12;102241.75;;;-2.62;86.60
75640;BME280;64233;51.486;6.332;2022-12-18T10:51:32;102244.25;;;-2.61;87.74
75640;BME280;64233;51.486;6.332;2022-12-18T10:56:31;102252.00;;;-2.59;87.18
75640;BME280;64233;51.486;6.332;2022-12-18T10:59:02;102255.59;;;-2.60;87.00
75640;BME280;64233;51.486;6.332;2022-12-18T11:01:28;102251.00;;;-2.58;87.31
75640;BME280;64233;51.486;6.332;2022-12-18T11:06:23;102244.53;;;-2.54;87.05
75640;BME280;64233;51.486;6.332;2022-12-18T11:09:26;102232.25;;;-2.53;87.19
75640;BME280;64233;51.486;6.332;2022-12-18T11:11:55;102226.84;;;-2.52;87.10
75640;BME280;64233;51.486;6.332;2022-12-18T11:14:46;102225.78;;;-2.49;87.05
75640;BME280;64233;51.486;6.332;2022-12-18T11:17:21;102209.88;;;-2.48;86.58
75640;BME280;64233;51.486;6.332;2022-12-18T11:19:53;102209.72;;;-2.46;87.21
75640;BME280;64233;51.486;6.332;2022-12-18T11:22:29;102205.03;;;-2.43;86.45
75640;BME280;64233;51.486;6.332;2022-12-18T11:27:38;102184.84;;;-2.42;86.50
75640;BME280;64233;51.486;6.332;2022-12-18T11:33:13;102181.13;;;-2.39;86.33
75640;BME280;64233;51.486;6.332;2022-12-18T11:38:24;102182.50;;;-2.35;86.71
75640;BME280;64233;51.486;6.332;2022-12-18T11:41:01;102183.34;;;-2.35;86.45
75640;BME280;64233;51.486;6.332;2022-12-18T11:43:31;102168.25;;;-2.33;87.41
75640;BME280;64233;51.486;6.332;2022-12-18T11:46:18;102165.50;;;-2.31;86.48
75640;BME280;64233;51.486;6.332;2022-12-18T11:49:12;102170.63;;;-2.30;85.90
75640;BME280;64233;51.486;6.332;2022-12-18T11:52:01;102164.41;;;-2.29;86.81
75640;BME280;64233;51.486;6.332;2022-12-18T11:54:29;102158.31;;;-2.29;85.94
75640;BME280;64233;51.486;6.332;2022-12-18T11:59:51;102148.22;;;-2.24;86.03
75640;BME280;64233;51.486;6.332;2022-12-18T12:08:06;102165.16;;;-2.17;86.36
75640;BME280;64233;51.486;6.332;2022-12-18T12:11:16;102153.66;;;-2.16;86.09
75640;BME280;64233;51.486;6.332;2022-12-18T12:13:59;102154.38;;;-2.14;86.43
75640;BME280;64233;51.486;6.332;2022-12-18T12:16:39;102156.00;;;-2.13;86.74
75640;BME280;64233;51.486;6.332;2022-12-18T12:19:15;102149.78;;;-2.12;85.79
75640;BME280;64233;51.486;6.332;2022-12-18T12:22:15;102142.34;;;-2.06;85.08
75640;BME280;64233;51.486;6.332;2022-12-18T12:25:01;102138.88;;;-2.07;86.18
75640;BME280;64233;51.486;6.332;2022-12-18T12:27:41;102139.72;;;-2.06;85.88
75640;BME280;64233;51.486;6.332;2022-12-18T12:30:16;102131.53;;;-2.03;86.15
75640;BME280;64233;51.486;6.332;2022-12-18T12:35:52;102127.81;;;-2.01;85.72
75640;BME280;64233;51.486;6.332;2022-12-18T12:38:37;102129.75;;;-2.03;86.35
75640;BME280;64233;51.486;6.332;2022-12-18T12:41:09;102125.31;;;-2.02;86.38
75640;BME280;64233;51.486;6.332;2022-12-18T12:43:59;102125.19;;;-2.01;86.45
75640;BME280;64233;51.486;6.332;2022-12-18T12:46:29;102133.63;;;-1.97;84.95
75640;BME280;64233;51.486;6.332;2022-12-18T12:48:58;102125.72;;;-1.97;85.97
75640;BME280;64233;51.486;6.332;2022-12-18T12:51:35;102125.06;;;-1.99;86.42
75640;BME280;64233;51.486;6.332;2022-12-18T12:54:04;102123.09;;;-1.97;85.54
75640;BME280;64233;51.486;6.332;2022-12-18T12:56:46;102107.06;;;-1.94;85.21
75640;BME280;64233;51.486;6.332;2022-12-18T12:59:38;102113.84;;;-1.92;85.22
75640;BME280;64233;51.486;6.332;2022-12-18T13:02:18;102112.06;;;-1.91;85.35
75640;BME280;64233;51.486;6.332;2022-12-18T13:05:03;102101.25;;;-1.88;84.95
75640;BME280;64233;51.486;6.332;2022-12-18T13:07:41;102096.81;;;-1.87;84.52
75640;BME280;64233;51.486;6.332;2022-12-18T13:13:06;102079.09;;;-1.85;84.40
75640;BME280;64233;51.486;6.332;2022-12-18T13:15:45;102076.75;;;-1.88;83.98
75640;BME280;64233;51.486;6.332;2022-12-18T13:18:14;102068.00;;;-1.89;83.32
75640;BME280;64233;51.486;6.332;2022-12-18T13:20:43;102073.41;;;-1.91;84.07
75640;BME280;64233;51.486;6.332;2022-12-18T13:25:52;102053.72;;;-1.96;84.30
75640;BME280;64233;51.486;6.332;2022-12-18T13:28:21;102055.38;;;-1.95;84.09
75640;BME280;64233;51.486;6.332;2022-12-18T13:30:52;102050.41;;;-1.98;84.11
75640;BME280;64233;51.486;6.332;2022-12-18T13:39:11;102039.88;;;-1.98;83.36
75640;BME280;64233;51.486;6.332;2022-12-18T13:41:54;102036.94;;;-2.05;85.15
75640;BME280;64233;51.486;6.332;2022-12-18T13:44:58;102043.88;;;-2.04;84.68
75640;BME280;64233;51.486;6.332;2022-12-18T13:47:31;102038.88;;;-2.07;84.80
75640;BME280;64233;51.486;6.332;2022-12-18T13:49:57;102030.16;;;-2.08;84.42
75640;BME280;64233;51.486;6.332;2022-12-18T13:52:28;102028.91;;;-2.03;83.13
75640;BME280;64233;51.486;6.332;2022-12-18T13:54:59;102037.09;;;-2.06;84.38
75640;BME280;64233;51.486;6.332;2022-12-18T13:57:34;102036.66;;;-2.12;85.10
75640;BME280;64233;51.486;6.332;2022-12-18T14:02:45;102040.97;;;-2.11;84.35
75640;BME280;64233;51.486;6.332;2022-12-18T14:05:27;102026.28;;;-2.13;83.95
75640;BME280;64233;51.486;6.332;2022-12-18T14:07:54;102022.81;;;-2.14;84.55
75640;BME280;64233;51.486;6.332;2022-12-18T14:10:20;102008.13;;;-2.16;84.77
75640;BME280;64233;51.486;6.332;2022-12-18T14:12:48;102005.50;;;-2.16;84.21